FW1613 Weather Reports


Display with metric or nautical units.
time (UTC)temp
F
wind
direction
speed
MPH
gust
MPH
rain 1hr
in
rain 24hr
in
rain mn
in
humidity
%
barometer
mb
20191213110423 61 138 17.0 21.0 0.00 0.13 0.06 72 1009.2
20191213105924 60 117 13.0 20.0 0.00 0.13 0.06 74 1009.5
20191213105421 58 93 2.0 9.0 0.00 0.13 0.06 79 1009.7
20191213104922 57 21 0.0 0.0 0.00 0.13 0.06 79 1009.6
20191213104424 57 48 0.0 3.0 0.00 0.13 0.06 81 1009.7
20191213103923 57 0 0.0 13.0 0.00 0.13 0.06 82 1009.6
20191213103422 57 321 8.0 13.0 0.00 0.13 0.06 80 1009.6
20191213102922 57 336 1.0 10.0 0.00 0.13 0.06 80 1009.6
20191213102422 56 0 5.0 10.0 0.00 0.13 0.06 82 1009.7
20191213101922 56 355 3.0 13.0 0.00 0.13 0.06 82 1009.8
20191213101422 56 4 5.0 13.0 0.00 0.13 0.06 82 1009.8
20191213100922 56 353 9.0 14.0 0.00 0.13 0.06 81 1009.8
20191213100422 56 353 8.0 14.0 0.00 0.13 0.06 81 1009.9
20191213095922 56 345 9.0 14.0 0.00 0.13 0.06 80 1009.7
20191213095422 57 331 8.0 14.0 0.00 0.13 0.06 80 1009.8
20191213094922 57 338 3.0 13.0 0.00 0.13 0.06 79 1009.8
20191213094421 57 320 6.0 13.0 0.00 0.13 0.06 79 1009.9
20191213093921 57 338 6.0 13.0 0.00 0.13 0.06 79 1010.1
20191213093422 57 331 8.0 14.0 0.00 0.14 0.06 78 1010.1
20191213092921 57 330 4.0 14.0 0.00 0.14 0.06 78 1010.0
20191213092421 57 337 5.0 9.0 0.00 0.14 0.06 78 1010.0
20191213091935 57 337 1.0 9.0 0.00 0.14 0.06 77 1010.0
20191213091423 57 7 4.0 12.0 0.00 0.15 0.06 78 1010.1
20191213090919 57 357 4.0 12.0 0.00 0.15 0.06 78 1010.1
20191213090418 57 336 2.0 12.0 0.00 0.15 0.06 79 1010.2
20191213085919 56 350 8.0 13.0 0.00 0.15 0.06 77 1010.1
20191213085650 57 333 6.0 13.0 0.00 0.16 0.06 78 1010.2
20191213085529 57 333 6.0 13.0 0.00 0.16 0.06 78 1010.2
20191213084918 57 333 8.0 13.0 0.00 0.16 0.06 77 1010.3
20191213084417 57 348 2.0 11.0 0.00 0.16 0.06 79 1010.4
20191213083918 56 21 7.0 12.0 0.00 0.17 0.06 78 1010.3
20191213083418 56 336 6.0 13.0 0.00 0.17 0.06 80 1010.4
20191213082917 56 337 9.0 13.0 0.00 0.17 0.06 78 1010.3
20191213082418 56 330 6.0 12.0 0.00 0.17 0.06 80 1010.3
20191213081918 56 340 7.0 14.0 0.00 0.17 0.06 81 1010.3
20191213081419 55 327 11.0 14.0 0.00 0.17 0.06 81 1010.3
20191213080917 55 348 9.0 14.0 0.00 0.17 0.06 81 1010.2
20191213080417 54 334 6.0 13.0 0.00 0.17 0.06 83 1010.2
20191213075919 54 350 7.0 13.0 0.00 0.17 0.06 84 1010.1
20191213075417 54 324 7.0 12.0 0.00 0.17 0.06 83 1010.0
20191213074917 54 344 7.0 12.0 0.00 0.17 0.06 83 1010.1
20191213074417 53 340 6.0 13.0 0.00 0.17 0.06 84 1010.2
20191213073918 53 333 9.0 14.0 0.00 0.17 0.06 84 1010.1
20191213073416 53 340 7.0 16.0 0.00 0.17 0.06 84 1010.0
20191213072917 53 327 10.0 17.0 0.00 0.17 0.06 84 1009.9
20191213072418 53 337 14.0 17.0 0.00 0.17 0.06 85 1009.9
20191213071915 53 331 11.0 15.0 0.00 0.17 0.06 85 1009.9
20191213071416 53 343 9.0 16.0 0.00 0.17 0.06 85 1010.0
20191213070915 52 329 9.0 16.0 0.00 0.17 0.06 85 1009.9
20191213070416 52 326 13.0 16.0 0.00 0.17 0.06 84 1009.8
20191213065916 52 341 12.0 17.0 0.00 0.17 0.06 85 1009.8
20191213065415 52 338 11.0 17.0 0.00 0.17 0.06 85 1009.7
20191213064915 52 338 10.0 17.0 0.00 0.17 0.06 85 1009.7
20191213064415 52 330 12.0 17.0 0.00 0.17 0.06 85 1009.6
20191213063915 52 334 11.0 17.0 0.00 0.17 0.06 84 1009.7
20191213063416 52 336 12.0 17.0 0.00 0.17 0.06 84 1009.6
20191213062914 52 334 13.0 17.0 0.00 0.17 0.06 84 1009.5
20191213062414 52 331 14.0 17.0 0.00 0.17 0.06 84 1009.4
20191213061914 52 331 9.0 14.0 0.00 0.17 0.06 85 1009.3
20191213061414 52 331 9.0 15.0 0.00 0.17 0.06 85 1009.2
20191213060914 52 329 8.0 15.0 0.00 0.17 0.06 84 1009.1
20191213060415 52 321 11.0 16.0 0.00 0.17 0.06 84 1009.1
20191213060145 52 341 12.0 17.0 0.00 0.17 0.06 84 1009.0
20191213055918 52 341 12.0 17.0 0.00 0.17 0.06 84 1009.0
20191213055414 52 340 13.0 17.0 0.00 0.17 0.06 85 1008.9
20191213054914 52 333 10.0 17.0 0.00 0.17 0.06 85 1008.7
20191213054414 51 337 12.0 17.0 0.00 0.17 0.06 85 1008.7
20191213053914 51 331 9.0 15.0 0.00 0.17 0.06 85 1008.6
20191213053413 51 333 11.0 15.0 0.00 0.17 0.06 85 1008.6
20191213052913 52 330 10.0 15.0 0.00 0.17 0.06 85 1008.6
20191213052414 52 358 11.0 15.0 0.00 0.17 0.06 84 1008.6
20191213051913 52 333 10.0 15.0 0.00 0.17 0.06 84 1008.6
20191213051413 52 337 11.0 15.0 0.00 0.17 0.06 84 1008.6
20191213050913 52 331 9.0 16.0 0.00 0.17 0.06 84 1008.6
20191213050413 52 330 11.0 16.0 0.00 0.17 0.06 84 1008.5
20191213045912 52 334 11.0 15.0 0.00 0.17 0.06 83 1008.3
20191213045412 52 347 10.0 16.0 0.00 0.17 0.06 83 1008.3
20191213044910 52 344 9.0 16.0 0.00 0.17 0.06 83 1008.3
20191213044411 52 324 11.0 16.0 0.00 0.17 0.06 83 1008.2
20191213043910 52 338 11.0 15.0 0.00 0.17 0.06 83 1008.2
20191213043408 52 337 12.0 16.0 0.00 0.17 0.06 83 1008.1
20191213042908 52 329 12.0 16.0 0.00 0.17 0.06 83 1008.1
20191213042406 52 340 13.0 16.0 0.00 0.17 0.06 83 1008.1
20191213041913 52 336 13.0 16.0 0.00 0.17 0.06 83 1007.9
20191213041407 52 326 12.0 15.0 0.00 0.17 0.06 83 1007.9
20191213040906 52 336 12.0 15.0 0.00 0.17 0.06 83 1007.8
20191213040404 52 336 12.0 14.0 0.00 0.17 0.06 83 1007.8
20191213035904 52 321 9.0 12.0 0.00 0.17 0.06 84 1007.9
20191213035402 52 333 8.0 11.0 0.00 0.17 0.06 85 1007.8
20191213034859 51 338 7.0 12.0 0.00 0.17 0.06 85 1007.9
20191213034405 51 336 8.0 12.0 0.00 0.17 0.06 85 1007.8
20191213033859 51 327 7.0 10.0 0.00 0.17 0.06 85 1007.8
20191213033400 51 336 6.0 10.0 0.00 0.17 0.06 86 1007.7
20191213032859 51 333 4.0 13.0 0.00 0.17 0.06 85 1007.5
20191213032358 51 345 9.0 13.0 0.00 0.17 0.06 85 1007.5
20191213031857 51 333 9.0 14.0 0.00 0.17 0.06 85 1007.4
20191213031405 51 327 10.0 14.0 0.00 0.17 0.06 85 1007.3
20191213030859 51 337 10.0 14.0 0.00 0.17 0.06 85 1007.2
20191213030355 51 324 9.0 14.0 0.00 0.17 0.06 86 1007.3
20191213025856 51 334 9.0 14.0 0.00 0.17 0.06 86 1007.2
20191213025354 51 336 8.0 13.0 0.00 0.17 0.06 86 1007.2
20191213024853 51 344 5.0 10.0 0.00 0.17 0.06 86 1007.1
20191213024353 51 351 4.0 10.0 0.00 0.17 0.06 85 1007.2
20191213023852 51 344 6.0 11.0 0.00 0.17 0.06 85 1007.1
20191213023349 51 337 6.0 12.0 0.00 0.17 0.06 85 1007.1
20191213022849 52 340 8.0 14.0 0.00 0.17 0.06 84 1006.9
20191213022350 52 338 9.0 14.0 0.00 0.17 0.06 84 1006.9
20191213021850 52 347 8.0 13.0 0.00 0.17 0.06 84 1007.0
20191213021349 52 336 9.0 13.0 0.00 0.17 0.06 84 1006.9
20191213020847 52 334 7.0 12.0 0.00 0.17 0.06 84 1006.9
20191213020348 52 326 6.0 12.0 0.00 0.17 0.06 84 1007.0
20191213015848 52 333 8.0 13.0 0.00 0.17 0.06 84 1007.0
20191213015345 52 333 9.0 13.0 0.00 0.17 0.06 84 1006.9
20191213014846 52 331 9.0 13.0 0.00 0.17 0.06 84 1006.9
20191213014345 51 340 8.0 12.0 0.00 0.17 0.06 85 1007.0
20191213013844 51 326 8.0 12.0 0.00 0.17 0.06 86 1007.0
20191213013346 51 337 7.0 11.0 0.00 0.17 0.06 86 1007.0
20191213012844 51 341 7.0 11.0 0.00 0.17 0.06 86 1007.0
20191213012341 51 341 6.0 11.0 0.00 0.17 0.06 86 1006.9
20191213011839 51 340 7.0 11.0 0.00 0.17 0.06 86 1007.0
20191213011339 51 338 6.0 10.0 0.01 0.17 0.06 86 1007.0
20191213010839 51 338 4.0 13.0 0.02 0.17 0.06 86 1007.2
20191213010340 51 336 8.0 13.0 0.03 0.17 0.06 85 1007.1
20191213005841 52 331 5.0 9.0 0.03 0.17 0.06 84 1007.2
20191213005338 52 343 1.0 7.0 0.03 0.17 0.06 85 1007.3
20191213004836 52 343 4.0 10.0 0.03 0.17 0.06 85 1007.2
20191213004333 52 334 7.0 11.0 0.03 0.17 0.06 84 1007.2
20191213003833 52 337 8.0 11.0 0.03 0.17 0.06 84 1007.3
20191213003333 52 334 4.0 11.0 0.03 0.17 0.06 83 1007.3
20191213002834 52 334 6.0 11.0 0.03 0.17 0.06 82 1007.2
20191213002333 52 333 0.0 6.0 0.03 0.17 0.06 82 1007.3
20191213001833 52 321 0.0 6.0 0.03 0.17 0.06 82 1007.2
20191213001334 52 338 3.0 10.0 0.02 0.16 0.05 83 1007.2
20191213000833 52 330 1.0 11.0 0.02 0.14 0.03 82 1007.3
20191213000333 52 338 4.0 12.0 0.01 0.13 0.02 82 1007.2
20191212235833 52 330 7.0 12.0 0.01 0.13 0.02 83 1007.0
20191212235333 52 333 8.0 12.0 0.01 0.13 0.02 83 1007.1
20191212234832 52 330 7.0 11.0 0.02 0.13 0.02 84 1007.2
20191212234332 51 338 7.0 12.0 0.02 0.13 0.02 84 1007.2
20191212233833 51 337 8.0 13.0 0.02 0.13 0.02 85 1007.1
20191212233331 51 340 8.0 13.0 0.02 0.13 0.02 86 1007.1
20191212232830 51 337 7.0 11.0 0.02 0.13 0.02 86 1007.1
20191212232331 51 327 6.0 11.0 0.02 0.13 0.02 86 1007.1
20191212231828 51 326 6.0 10.0 0.02 0.13 0.02 85 1007.1
20191212231329 51 329 4.0 11.0 0.02 0.13 0.02 85 1007.2
20191212230828 51 334 4.0 11.0 0.02 0.13 0.02 85 1007.1
20191212230558 51 334 6.0 11.0 0.02 0.13 0.02 85 1007.1
20191212225837 51 336 6.0 11.0 0.02 0.13 0.02 85 1007.1
20191212225327 52 340 4.0 13.0 0.02 0.13 0.02 85 1007.1
20191212224823 52 336 7.0 13.0 0.01 0.12 0.01 84 1007.1
20191212224324 52 333 9.0 13.0 0.01 0.12 0.01 83 1007.1
20191212223825 52 334 10.0 14.0 0.01 0.12 0.01 83 1007.1
20191212223553 52 336 11.0 14.0 0.01 0.11 0.00 83 1007.1
20191212222822 52 334 11.0 14.0 0.00 0.11 0.00 82 1007.1
20191212222323 53 336 11.0 14.0 0.00 0.11 0.00 81 1007.1
20191212221820 53 327 10.0 14.0 0.00 0.11 0.00 81 1007.1
20191212221321 53 324 9.0 14.0 0.00 0.11 0.00 82 1007.2
20191212220821 52 329 9.0 14.0 0.00 0.11 0.00 83 1007.1
20191212220318 52 324 9.0 14.0 0.00 0.11 0.00 84 1006.9
20191212215818 52 336 9.0 16.0 0.00 0.11 0.11 84 1006.9
20191212215318 52 330 12.0 16.0 0.00 0.11 0.11 84 1006.9
20191212214816 52 329 10.0 14.0 0.00 0.11 0.11 84 1007.0
20191212214317 52 345 11.0 14.0 0.00 0.11 0.11 85 1006.8
20191212213817 52 336 12.0 15.0 0.00 0.11 0.11 84 1006.9
20191212213314 52 320 11.0 15.0 0.00 0.11 0.11 84 1006.8
20191212212814 52 330 11.0 15.0 0.00 0.11 0.11 85 1006.8
20191212212314 52 331 11.0 15.0 0.00 0.11 0.11 85 1007.0
20191212211812 52 330 12.0 15.0 0.00 0.11 0.11 84 1007.0
20191212211312 52 333 11.0 15.0 0.00 0.11 0.11 85 1007.1
20191212210813 52 336 10.0 17.0 0.00 0.11 0.11 85 1007.1
20191212210310 52 338 11.0 17.0 0.00 0.11 0.11 85 1007.1
20191212205811 52 334 10.0 15.0 0.00 0.11 0.11 84 1007.1
20191212205310 52 334 11.0 15.0 0.00 0.11 0.11 84 1007.2
20191212204809 52 337 11.0 14.0 0.00 0.11 0.11 84 1007.2
20191212204307 52 327 11.0 15.0 0.00 0.11 0.11 84 1007.3
20191212203809 52 343 12.0 15.0 0.01 0.11 0.11 85 1007.3
20191212203307 52 337 11.0 16.0 0.01 0.11 0.11 85 1007.3
20191212202807 52 323 12.0 16.0 0.01 0.11 0.11 85 1007.3
20191212202305 52 334 10.0 16.0 0.01 0.11 0.11 85 1007.3
20191212201804 52 327 12.0 16.0 0.01 0.11 0.11 85 1007.4
20191212201304 52 338 12.0 16.0 0.01 0.11 0.11 85 1007.4
20191212200805 52 337 12.0 16.0 0.01 0.11 0.11 85 1007.3
20191212200305 52 329 12.0 16.0 0.01 0.11 0.11 86 1007.3
20191212195804 52 337 13.0 15.0 0.01 0.11 0.11 86 1007.4
20191212195305 52 334 12.0 15.0 0.01 0.11 0.11 86 1007.4
20191212194803 52 327 12.0 16.0 0.01 0.11 0.11 86 1007.4
20191212194305 52 338 13.0 16.0 0.01 0.11 0.11 87 1007.4
20191212193805 52 330 11.0 16.0 0.00 0.10 0.10 87 1007.4
20191212193305 52 323 12.0 16.0 0.00 0.10 0.10 87 1007.3
20191212192804 52 333 12.0 16.0 0.00 0.10 0.10 87 1007.4
20191212192304 52 334 12.0 17.0 0.00 0.10 0.10 87 1007.2
20191212191803 52 337 12.0 17.0 0.00 0.10 0.10 87 1007.3
20191212191304 52 337 13.0 17.0 0.00 0.10 0.10 87 1007.3
20191212190805 52 329 14.0 17.0 0.00 0.10 0.10 87 1007.3
20191212190302 52 334 12.0 16.0 0.00 0.10 0.10 87 1007.4
20191212185810 52 333 11.0 16.0 0.00 0.10 0.10 88 1007.3
20191212185302 52 333 12.0 17.0 0.00 0.10 0.10 88 1007.3
20191212184801 52 333 12.0 17.0 0.00 0.10 0.10 88 1007.2
20191212184301 52 327 12.0 17.0 0.00 0.10 0.10 88 1007.4
20191212183802 52 337 14.0 17.0 0.00 0.10 0.10 88 1007.2
20191212183300 52 319 13.0 16.0 0.00 0.10 0.10 88 1007.1
20191212182803 52 323 12.0 16.0 0.00 0.10 0.10 88 1007.1
20191212182300 52 324 12.0 16.0 0.00 0.10 0.10 88 1007.1
20191212181814 52 323 11.0 15.0 0.00 0.10 0.10 88 1007.1
20191212181301 52 323 10.0 15.0 0.00 0.10 0.10 88 1007.0
20191212180802 52 330 11.0 16.0 0.00 0.10 0.10 88 1007.1
20191212180300 52 330 11.0 16.0 0.00 0.10 0.10 88 1007.1
20191212175800 52 320 12.0 15.0 0.00 0.10 0.10 88 1007.0
20191212175259 51 329 12.0 16.0 0.00 0.10 0.10 88 1007.0
20191212174759 51 327 13.0 16.0 0.00 0.10 0.10 88 1006.9
20191212174300 51 326 10.0 15.0 0.00 0.10 0.10 88 1006.9
20191212173759 51 341 11.0 16.0 0.00 0.10 0.10 87 1007.0
20191212173259 52 340 12.0 17.0 0.00 0.10 0.10 87 1007.0
20191212172800 52 330 10.0 17.0 0.00 0.10 0.10 87 1007.0
20191212172259 52 337 13.0 17.0 0.00 0.10 0.10 87 1007.1
20191212171759 52 354 12.0 17.0 0.00 0.10 0.10 87 1007.1
20191212171301 52 327 13.0 17.0 0.00 0.10 0.10 87 1007.1
20191212170759 52 323 12.0 17.0 0.00 0.10 0.10 87 1007.2
20191212170300 52 336 11.0 15.0 0.00 0.10 0.10 87 1007.2
20191212165800 52 331 10.0 15.0 0.00 0.10 0.10 88 1007.3
20191212165300 52 330 7.0 16.0 0.00 0.10 0.10 88 1007.2
20191212164759 52 334 10.0 17.0 0.00 0.10 0.10 88 1007.1
20191212164258 52 338 11.0 17.0 0.00 0.10 0.10 89 1007.0
20191212163758 51 337 10.0 14.0 0.00 0.10 0.10 90 1007.0
20191212163259 52 337 8.0 14.0 0.00 0.10 0.10 90 1007.0
20191212162757 52 327 8.0 14.0 0.00 0.10 0.10 89 1007.1
20191212162257 52 336 9.0 14.0 0.00 0.10 0.10 90 1007.0
20191212161758 51 338 10.0 14.0 0.00 0.10 0.10 90 1007.0
20191212161259 51 334 5.0 10.0 0.00 0.10 0.10 90 1007.0
20191212160758 51 348 7.0 10.0 0.01 0.10 0.10 90 1007.1
20191212160258 51 336 3.0 10.0 0.01 0.10 0.10 90 1007.0
20191212160029 51 353 6.0 11.0 0.01 0.10 0.10 89 1007.1
20191212155801 51 353 6.0 11.0 0.01 0.10 0.10 89 1007.1
20191212155258 51 345 5.0 13.0 0.01 0.10 0.10 89 1007.1
20191212154758 51 333 8.0 13.0 0.01 0.10 0.10 89 1007.2
20191212154258 51 336 10.0 14.0 0.02 0.10 0.10 89 1006.9
20191212153757 51 333 9.0 15.0 0.02 0.10 0.10 89 1006.9
20191212153304 51 326 10.0 15.0 0.02 0.10 0.10 89 1006.9
20191212152756 51 334 11.0 16.0 0.02 0.10 0.10 89 1006.8
20191212152256 51 334 10.0 16.0 0.02 0.10 0.10 89 1006.8
20191212151757 51 343 10.0 15.0 0.02 0.10 0.10 89 1006.7
20191212151256 51 336 10.0 15.0 0.02 0.10 0.10 89 1006.7
20191212150757 51 320 13.0 15.0 0.02 0.09 0.09 89 1006.8
20191212150256 51 324 12.0 15.0 0.02 0.09 0.09 89 1006.9
20191212145756 51 326 7.0 14.0 0.02 0.09 0.09 89 1006.9
20191212145257 51 329 9.0 14.0 0.02 0.09 0.09 89 1006.8
20191212144756 51 340 9.0 14.0 0.02 0.09 0.09 89 1006.9
20191212144303 51 333 6.0 14.0 0.02 0.09 0.09 89 1007.0
20191212143756 51 331 9.0 14.0 0.02 0.09 0.09 89 1007.0
20191212143259 52 333 9.0 14.0 0.02 0.09 0.09 88 1007.0
20191212142757 52 330 9.0 14.0 0.02 0.09 0.09 88 1007.0
20191212142256 52 344 10.0 14.0 0.03 0.09 0.09 87 1007.0
20191212141755 52 330 7.0 13.0 0.03 0.09 0.09 87 1007.2
20191212141258 52 326 8.0 14.0 0.02 0.08 0.08 87 1007.1
20191212140801 52 319 8.0 14.0 0.02 0.08 0.08 87 1007.2
20191212140255 52 316 9.0 13.0 0.03 0.08 0.08 87 1007.3
20191212135755 52 316 9.0 14.0 0.03 0.08 0.08 86 1007.2
20191212135256 52 310 9.0 14.0 0.02 0.07 0.07 87 1007.2
20191212134755 52 313 9.0 14.0 0.02 0.07 0.07 87 1007.0
20191212134255 52 320 11.0 16.0 0.02 0.07 0.07 87 1006.9
20191212133805 52 314 12.0 16.0 0.02 0.07 0.07 87 1007.0
20191212133255 52 314 13.0 16.0 0.02 0.06 0.06 86 1006.9
20191212132755 53 312 13.0 17.0 0.02 0.06 0.06 86 1007.1
20191212132254 53 323 13.0 17.0 0.01 0.06 0.06 85 1006.9
20191212131755 53 321 14.0 18.0 0.02 0.06 0.06 85 1006.9
20191212131253 53 323 14.0 18.0 0.02 0.06 0.06 86 1006.9
20191212130754 53 323 11.0 15.0 0.02 0.05 0.05 85 1006.9
20191212130254 53 338 9.0 16.0 0.01 0.05 0.05 84 1006.8
20191212125753 54 324 9.0 16.0 0.01 0.05 0.05 83 1006.8
20191212125254 54 319 13.0 17.0 0.01 0.05 0.05 83 1006.7
20191212124754 54 306 12.0 17.0 0.01 0.05 0.05 83 1006.8
20191212124252 54 306 10.0 17.0 0.01 0.05 0.05 82 1006.7
20191212123753 55 317 11.0 15.0 0.01 0.05 0.05 80 1006.5
20191212123253 55 314 12.0 14.0 0.01 0.05 0.05 79 1006.5
20191212122753 55 310 5.0 12.0 0.01 0.05 0.05 79 1006.6
20191212122254 55 331 7.0 12.0 0.01 0.05 0.05 77 1006.5
20191212121752 55 324 4.0 10.0 0.00 0.04 0.04 76 1006.5
20191212121252 55 324 3.0 6.0 0.00 0.04 0.04 76 1006.5
20191212120752 55 324 1.0 11.0 0.00 0.04 0.04 76 1006.5
20191212120254 55 323 2.0 11.0 0.00 0.04 0.04 75 1006.7
20191212115752 55 326 4.0 6.0 0.00 0.04 0.04 77 1006.6
20191212115252 55 333 0.0 7.0 0.00 0.04 0.04 77 1006.7
20191212114751 55 338 4.0 7.0 0.00 0.04 0.04 77 1006.6
20191212114251 55 324 1.0 7.0 0.00 0.04 0.04 79 1006.7
20191212113751 55 337 0.0 7.0 0.00 0.04 0.04 80 1006.7
20191212113254 55 329 0.0 7.0 0.00 0.04 0.04 78 1006.7
20191212112752 55 355 0.0 6.0 0.00 0.04 0.04 76 1006.6
20191212112251 55 14 1.0 6.0 0.00 0.04 0.04 76 1006.7
20191212111751 55 334 0.0 11.0 0.00 0.04 0.04 77 1006.9
20191212111250 55 32 4.0 11.0 0.00 0.04 0.04 79 1007.0
20191212110752 55 350 0.0 7.0 0.00 0.04 0.04 81 1007.2